Bea Schulte — VRGA2 — position and weather

sailwx.info

Track history (hours):
 
Tides and Currents Weather Stations Pressure Air Temp Water Temp Dewpoint Dewpoint Depression Visibility Wind Speed Wind Dir Waves Ship Positions

Bea Schulte

Last reported at 2017-Feb-26 18:33 UTC. Time now 2017-Feb-28 17:21 UTC.
Position N 17°38' W 061°00'.

Length 264 m; draft 11 m.

Type: Ship (hazmat cat A). MMSI: 477639500.

Date/timePositionNaut miles runAvg speedWind from/ knotsBaromVisibWave heightAir tempDewpointWater temp
2017-Feb-26 18:33N 17°38' W 061°00'1818.0
2017-Feb-26 17:34N 17°50' W 061°15'1818.2
2017-Feb-26 16:33N 18°01' W 061°30'5517.9
2017-Feb-26 13:30N 18°38' W 062°12'  
2017-Feb-24 04:29N 26°11' W 079°21'1617.4
2017-Feb-24 03:33N 26°09' W 079°38'1919.3
2017-Feb-24 02:33N 26°06' W 079°60'7 6.7
2017-Feb-24 01:33N 26°04' W 080°07'0 0.0
2017-Feb-24 00:31N 26°04' W 080°07'0 0.0
2017-Feb-23 23:32N 26°04' W 080°07'0 0.0
2017-Feb-23 22:28N 26°04' W 080°07'0 0.0
2017-Feb-23 21:32N 26°04' W 080°07'0 0.0
2017-Feb-23 20:31N 26°04' W 080°07'0 0.0
2017-Feb-23 19:28N 26°04' W 080°07'0 0.0
2017-Feb-23 18:31N 26°04' W 080°07'0 0.0
2017-Feb-23 17:31N 26°04' W 080°07'0 0.0
2017-Feb-23 16:31N 26°04' W 080°07'0 0.0
2017-Feb-23 15:31N 26°04' W 080°07'0 0.0
2017-Feb-23 14:31N 26°04' W 080°07'0 0.0
2017-Feb-23 13:31N 26°04' W 080°07'0 0.0
2017-Feb-23 12:31N 26°04' W 080°07'1 1.3
2017-Feb-23 11:33N 26°06' W 080°07'6 5.6
2017-Feb-23 10:33N 26°09' W 080°02'10 9.7
2017-Feb-23 09:33N 26°19' W 079°60'1010.4
2017-Feb-23 08:33N 26°29' W 079°58'1010.4
2017-Feb-23 07:33N 26°39' W 079°56'1010.3
2017-Feb-23 06:33N 26°50' W 079°56'1110.6
2017-Feb-23 05:33N 27°00' W 079°55'1210.5
2017-Feb-23 04:25N 27°12' W 079°56'262 5.9
2017-Feb-21 08:12N 31°34' W 079°56'711.3
2017-Feb-21 07:33N 31°40' W 079°51'1111.4
2017-Feb-21 06:33N 31°51' W 079°48'1111.4
2017-Feb-21 05:33N 32°02' W 079°44'1111.5
2017-Feb-21 04:33N 32°13' W 079°41'6 2.7
2017-Feb-21 02:10N 32°18' W 079°36'0 0.6
2017-Feb-21 01:29N 32°18' W 079°35'0 0.3
2017-Feb-21 00:33N 32°18' W 079°36'10 9.9
2017-Feb-20 23:33N 32°28' W 079°36'9 9.4
2017-Feb-20 22:32N 32°37' W 079°39'316 7.5
2017-Feb-19 04:17N 36°51' W 075°50'7 9.7
2017-Feb-19 03:33N 36°55' W 075°57'1713.9
2017-Feb-19 02:21N 36°60' W 076°17'9 0.8
2017-Feb-18 14:33N 36°58' W 076°06'1110.9
2017-Feb-18 13:33N 36°54' W 075°53'10 9.5
2017-Feb-18 12:32N 36°50' W 075°43'124 7.2
2017-Feb-17 19:17N 38°51' W 075°05'1114.5
2017-Feb-17 18:33N 39°01' W 075°09'1616.1
2017-Feb-17 17:33N 39°15' W 075°19'1615.9
2017-Feb-17 16:33N 39°27' W 075°33'1313.4
2017-Feb-17 15:34N 39°40' W 075°32'1111.4
2017-Feb-17 14:33N 39°49' W 075°23'6 5.7
2017-Feb-17 13:34N 39°51' W 075°16'7 6.7
2017-Feb-17 12:32N 39°54' W 075°08'0 0.0
2017-Feb-17 11:32N 39°54' W 075°08'0 0.0
2017-Feb-17 10:32N 39°54' W 075°08'0 0.0
2017-Feb-17 09:32N 39°54' W 075°08'0 0.0
2017-Feb-17 08:32N 39°54' W 075°08'0 0.0
2017-Feb-17 07:32N 39°54' W 075°08'0 0.0
2017-Feb-17 06:32N 39°54' W 075°08'0 0.0
2017-Feb-17 05:32N 39°54' W 075°08'0 0.0
2017-Feb-17 04:32N 39°54' W 075°08'0 0.0
2017-Feb-17 03:32N 39°54' W 075°08'0 0.0
2017-Feb-17 02:32N 39°54' W 075°08'0 0.0
2017-Feb-17 01:32N 39°54' W 075°08'0 0.0
2017-Feb-17 00:32N 39°54' W 075°08'0 0.2
2017-Feb-16 23:33N 39°54' W 075°08'8 7.7
2017-Feb-16 22:33N 39°51' W 075°17'1110.7
2017-Feb-16 21:34N 39°45' W 075°29'1212.3
2017-Feb-16 20:33N 39°33' W 075°32'1514.9
2017-Feb-16 19:34N 39°20' W 075°25'1716.9
2017-Feb-16 18:33N 39°06' W 075°12'  
Track history (hours):
 
Tides and Currents Weather Stations Pressure Air Temp Water Temp Dewpoint Dewpoint Depression Visibility Wind Speed Wind Dir Waves Ship Positions

Bea Schulte

Last reported at 2017-Feb-26 18:33 UTC. Time now 2017-Feb-28 17:21 UTC.
Position N 17°38' W 061°00'.

Length 264 m; draft 11 m.

Type: Ship (hazmat cat A). MMSI: 477639500.

Date/timePositionNaut miles runAvg speedWind from/ knotsBaromVisibWave heightAir tempDewpointWater temp
2017-Feb-26 18:33N 17°38' W 061°00'1818.0
2017-Feb-26 17:34N 17°50' W 061°15'1818.2
2017-Feb-26 16:33N 18°01' W 061°30'5517.9
2017-Feb-26 13:30N 18°38' W 062°12'  
2017-Feb-24 04:29N 26°11' W 079°21'1617.4
2017-Feb-24 03:33N 26°09' W 079°38'1919.3
2017-Feb-24 02:33N 26°06' W 079°60'7 6.7
2017-Feb-24 01:33N 26°04' W 080°07'0 0.0
2017-Feb-24 00:31N 26°04' W 080°07'0 0.0
2017-Feb-23 23:32N 26°04' W 080°07'0 0.0
2017-Feb-23 22:28N 26°04' W 080°07'0 0.0
2017-Feb-23 21:32N 26°04' W 080°07'0 0.0
2017-Feb-23 20:31N 26°04' W 080°07'0 0.0
2017-Feb-23 19:28N 26°04' W 080°07'0 0.0
2017-Feb-23 18:31N 26°04' W 080°07'0 0.0
2017-Feb-23 17:31N 26°04' W 080°07'0 0.0
2017-Feb-23 16:31N 26°04' W 080°07'0 0.0
2017-Feb-23 15:31N 26°04' W 080°07'0 0.0
2017-Feb-23 14:31N 26°04' W 080°07'0 0.0
2017-Feb-23 13:31N 26°04' W 080°07'0 0.0
2017-Feb-23 12:31N 26°04' W 080°07'1 1.3
2017-Feb-23 11:33N 26°06' W 080°07'6 5.6
2017-Feb-23 10:33N 26°09' W 080°02'10 9.7
2017-Feb-23 09:33N 26°19' W 079°60'1010.4
2017-Feb-23 08:33N 26°29' W 079°58'1010.4
2017-Feb-23 07:33N 26°39' W 079°56'1010.3
2017-Feb-23 06:33N 26°50' W 079°56'1110.6
2017-Feb-23 05:33N 27°00' W 079°55'1210.5
2017-Feb-23 04:25N 27°12' W 079°56'262 5.9
2017-Feb-21 08:12N 31°34' W 079°56'711.3
2017-Feb-21 07:33N 31°40' W 079°51'1111.4
2017-Feb-21 06:33N 31°51' W 079°48'1111.4
2017-Feb-21 05:33N 32°02' W 079°44'1111.5
2017-Feb-21 04:33N 32°13' W 079°41'6 2.7
2017-Feb-21 02:10N 32°18' W 079°36'0 0.6
2017-Feb-21 01:29N 32°18' W 079°35'0 0.3
2017-Feb-21 00:33N 32°18' W 079°36'10 9.9
2017-Feb-20 23:33N 32°28' W 079°36'9 9.4
2017-Feb-20 22:32N 32°37' W 079°39'316 7.5
2017-Feb-19 04:17N 36°51' W 075°50'7 9.7
2017-Feb-19 03:33N 36°55' W 075°57'1713.9
2017-Feb-19 02:21N 36°60' W 076°17'9 0.8
2017-Feb-18 14:33N 36°58' W 076°06'1110.9
2017-Feb-18 13:33N 36°54' W 075°53'10 9.5
2017-Feb-18 12:32N 36°50' W 075°43'124 7.2
2017-Feb-17 19:17N 38°51' W 075°05'1114.5
2017-Feb-17 18:33N 39°01' W 075°09'1616.1
2017-Feb-17 17:33N 39°15' W 075°19'1615.9
2017-Feb-17 16:33N 39°27' W 075°33'1313.4
2017-Feb-17 15:34N 39°40' W 075°32'1111.4
2017-Feb-17 14:33N 39°49' W 075°23'6 5.7
2017-Feb-17 13:34N 39°51' W 075°16'7 6.7
2017-Feb-17 12:32N 39°54' W 075°08'0 0.0
2017-Feb-17 11:32N 39°54' W 075°08'0 0.0
2017-Feb-17 10:32N 39°54' W 075°08'0 0.0
2017-Feb-17 09:32N 39°54' W 075°08'0 0.0
2017-Feb-17 08:32N 39°54' W 075°08'0 0.0
2017-Feb-17 07:32N 39°54' W 075°08'0 0.0
2017-Feb-17 06:32N 39°54' W 075°08'0 0.0
2017-Feb-17 05:32N 39°54' W 075°08'0 0.0
2017-Feb-17 04:32N 39°54' W 075°08'0 0.0
2017-Feb-17 03:32N 39°54' W 075°08'0 0.0
2017-Feb-17 02:32N 39°54' W 075°08'0 0.0
2017-Feb-17 01:32N 39°54' W 075°08'0 0.0
2017-Feb-17 00:32N 39°54' W 075°08'0 0.2
2017-Feb-16 23:33N 39°54' W 075°08'8 7.7
2017-Feb-16 22:33N 39°51' W 075°17'1110.7
2017-Feb-16 21:34N 39°45' W 075°29'1212.3
2017-Feb-16 20:33N 39°33' W 075°32'1514.9
2017-Feb-16 19:34N 39°20' W 075°25'1716.9
2017-Feb-16 18:33N 39°06' W 075°12'  

Dump ship's entire track history